Time;durP1;ratioP1;P1;durP2;ratioP2;P2;SDS_P1;SDS_P2;PMS_P1;PMS_P2;Temp;Humidity;BMP_temperature;BMP_pressure;BME280_temperature;BME280_humidity;BME280_pressure;Samples;Min_cycle;Max_cycle;Signal;HPM_P1;HPM_P2
2022/03/03 00:00:23;;;;;;;52.40;26.73;;;23.40;30.70;;;;;;6155451;28;83064;-63
2022/03/03 00:03:24;;;;;;;52.95;27.25;;;23.40;30.30;;;;;;6131390;28;83128;-63
2022/03/03 00:06:24;;;;;;;53.15;27.30;;;23.40;31.10;;;;;;6129922;28;83476;-63
2022/03/03 00:09:25;;;;;;;55.40;29.80;;;23.40;30.30;;;;;;6127786;28;86763;-63
2022/03/03 00:12:25;;;;;;;51.75;27.58;;;23.40;30.30;;;;;;6129740;28;83668;-64
2022/03/03 00:15:26;;;;;;;56.42;27.98;;;23.30;30.20;;;;;;6130958;28;84006;-64
2022/03/03 00:18:26;;;;;;;56.47;27.48;;;23.30;30.30;;;;;;6128977;28;83361;-63
2022/03/03 00:21:27;;;;;;;56.28;29.23;;;23.30;30.30;;;;;;6129685;28;83077;-63
2022/03/03 00:24:28;;;;;;;46.63;25.10;;;23.30;30.30;;;;;;6128948;28;83274;-63
2022/03/03 00:27:28;;;;;;;50.20;26.08;;;23.30;30.90;;;;;;6130826;28;83072;-63
2022/03/03 00:30:29;;;;;;;51.20;26.70;;;23.30;30.80;;;;;;6143044;28;83521;-64
2022/03/03 00:33:29;;;;;;;44.58;24.70;;;23.30;30.90;;;;;;6135328;28;83995;-62
2022/03/03 00:36:30;;;;;;;47.40;25.13;;;23.30;31.10;;;;;;6131482;28;83230;-63
2022/03/03 00:39:30;;;;;;;50.28;25.42;;;23.30;31.20;;;;;;6135448;28;82774;-64
2022/03/03 00:42:31;;;;;;;47.63;23.55;;;23.20;31.10;;;;;;6129519;28;83381;-64
2022/03/03 00:45:31;;;;;;;50.22;24.20;;;23.30;31.00;;;;;;6139302;28;83280;-63
2022/03/03 00:48:32;;;;;;;46.25;24.33;;;23.20;31.20;;;;;;6132426;28;83067;-63
2022/03/03 00:51:32;;;;;;;46.05;24.63;;;23.20;31.00;;;;;;6136104;28;83688;-63
2022/03/03 00:54:33;;;;;;;51.67;26.38;;;23.20;31.00;;;;;;6137253;28;83620;-63
2022/03/03 00:57:33;;;;;;;42.20;22.02;;;23.20;31.10;;;;;;6129388;28;82921;-64
2022/03/03 01:00:34;;;;;;;42.83;22.30;;;23.20;31.10;;;;;;6142655;28;83502;-64
2022/03/03 01:03:34;;;;;;;44.58;22.88;;;23.20;31.20;;;;;;6128843;28;82902;-64
2022/03/03 01:06:35;;;;;;;46.58;23.80;;;23.20;31.10;;;;;;6129465;28;83026;-65
2022/03/03 01:09:36;;;;;;;45.13;23.30;;;23.20;31.30;;;;;;6135364;28;83001;-65
2022/03/03 01:12:36;;;;;;;44.50;22.67;;;23.20;31.10;;;;;;6134465;28;85385;-65
2022/03/03 01:15:37;;;;;;;42.80;23.40;;;23.20;31.10;;;;;;6131099;28;83936;-64
2022/03/03 01:18:37;;;;;;;45.55;23.58;;;23.20;31.30;;;;;;6131602;28;83501;-64
2022/03/03 01:21:38;;;;;;;45.35;24.00;;;23.20;31.00;;;;;;6134935;28;83329;-64
2022/03/03 01:24:38;;;;;;;46.72;23.05;;;23.20;30.90;;;;;;6140592;28;83313;-63
2022/03/03 01:27:39;;;;;;;44.50;24.17;;;23.20;31.20;;;;;;6140768;28;85085;-63
2022/03/03 01:30:39;;;;;;;47.00;23.50;;;23.20;31.20;;;;;;6128726;28;83258;-63
2022/03/03 01:33:40;;;;;;;42.50;22.60;;;23.20;31.20;;;;;;6131097;28;83230;-63
2022/03/03 01:36:40;;;;;;;39.88;22.23;;;23.20;31.30;;;;;;6129722;28;83141;-63
2022/03/03 01:39:41;;;;;;;41.15;21.63;;;23.20;31.30;;;;;;6129095;28;83211;-64
2022/03/03 01:42:41;;;;;;;44.30;21.40;;;23.20;31.70;;;;;;6130759;28;83208;-62
2022/03/03 01:45:42;;;;;;;41.22;21.48;;;23.20;31.70;;;;;;6143957;28;82925;-63
2022/03/03 01:48:42;;;;;;;43.72;22.90;;;23.20;31.80;;;;;;6135885;28;83134;-63
2022/03/03 01:51:43;;;;;;;42.35;22.00;;;23.20;31.40;;;;;;6132558;28;83147;-63
2022/03/03 01:54:44;;;;;;;42.65;22.85;;;23.20;31.20;;;;;;6133576;28;83344;-63
2022/03/03 01:57:44;;;;;;;42.08;21.48;;;23.20;31.30;;;;;;6133449;28;83521;-63
2022/03/03 02:00:45;;;;;;;44.13;22.83;;;23.20;31.60;;;;;;6131184;28;83272;-63
2022/03/03 02:03:45;;;;;;;42.40;21.80;;;23.20;31.50;;;;;;6130934;28;83142;-64
2022/03/03 02:06:46;;;;;;;38.88;21.48;;;23.10;31.30;;;;;;6132038;28;83127;-64
2022/03/03 02:09:46;;;;;;;41.10;22.00;;;23.10;31.30;;;;;;6132880;28;85952;-64
2022/03/03 02:12:47;;;;;;;42.42;21.88;;;23.10;31.40;;;;;;6129759;28;83622;-62
2022/03/03 02:15:47;;;;;;;39.25;20.98;;;23.10;31.10;;;;;;6120130;28;84941;-63
2022/03/03 02:18:48;;;;;;;38.75;20.83;;;23.10;32.00;;;;;;6134259;28;86048;-63
2022/03/03 02:21:49;;;;;;;38.10;20.65;;;23.20;32.70;;;;;;6131572;28;83353;-62
2022/03/03 02:24:50;;;;;;;36.85;20.25;;;23.20;32.80;;;;;;6130400;28;83508;-63
2022/03/03 02:27:50;;;;;;;37.40;20.50;;;23.20;33.10;;;;;;6131957;28;83056;-62
2022/03/03 02:30:51;;;;;;;40.17;21.20;;;23.20;33.20;;;;;;6132574;28;83091;-64
2022/03/03 02:33:52;;;;;;;46.78;22.90;;;23.20;33.20;;;;;;6134713;28;83654;-64
2022/03/03 02:36:52;;;;;;;42.72;23.02;;;23.10;33.30;;;;;;6123415;28;83234;-63
2022/03/03 02:39:53;;;;;;;41.10;22.65;;;23.20;33.30;;;;;;6130840;28;83185;-63
2022/03/03 02:42:53;;;;;;;43.03;22.02;;;23.10;33.00;;;;;;6133192;28;85643;-62
2022/03/03 02:45:54;;;;;;;46.33;23.25;;;23.20;33.40;;;;;;6125979;28;83994;-62
2022/03/03 02:48:54;;;;;;;47.60;24.40;;;23.10;33.00;;;;;;6127020;28;84418;-62
2022/03/03 02:51:55;;;;;;;48.47;25.20;;;23.10;33.00;;;;;;6131074;28;82917;-64
2022/03/03 02:54:55;;;;;;;49.67;25.15;;;23.10;32.90;;;;;;6144301;28;83343;-63
2022/03/03 02:57:56;;;;;;;49.53;25.98;;;23.10;32.80;;;;;;6132243;28;84202;-62
2022/03/03 03:00:57;;;;;;;49.88;26.23;;;23.10;32.60;;;;;;6131121;28;83544;-62
2022/03/03 03:03:57;;;;;;;53.72;27.42;;;23.10;32.60;;;;;;6133147;28;84289;-62
2022/03/03 03:06:58;;;;;;;57.00;28.20;;;23.10;32.50;;;;;;6132493;28;83594;-63
2022/03/03 03:09:58;;;;;;;53.03;27.05;;;23.10;32.50;;;;;;6126345;28;84471;-63
2022/03/03 03:12:59;;;;;;;58.38;30.33;;;23.10;32.60;;;;;;6131455;28;83080;-62
2022/03/03 03:15:59;;;;;;;57.90;29.48;;;23.10;32.30;;;;;;6132226;28;83358;-62
2022/03/03 03:19:00;;;;;;;58.88;30.90;;;23.10;32.50;;;;;;6130501;28;82819;-62
2022/03/03 03:22:02;;;;;;;58.97;30.77;;;23.10;32.50;;;;;;6132018;28;83107;-62
2022/03/03 03:25:02;;;;;;;65.70;32.67;;;23.10;32.40;;;;;;6129153;28;83156;-63
2022/03/03 03:28:03;;;;;;;62.25;31.92;;;23.10;32.30;;;;;;6130993;28;83252;-63
2022/03/03 03:31:03;;;;;;;63.03;31.88;;;23.10;32.20;;;;;;6129112;28;83468;-62
2022/03/03 03:34:04;;;;;;;62.75;31.63;;;23.10;32.20;;;;;;6130644;28;84407;-62
2022/03/03 03:37:04;;;;;;;64.57;32.80;;;23.10;32.30;;;;;;6131157;28;82918;-62
2022/03/03 03:40:05;;;;;;;62.80;32.83;;;23.20;32.20;;;;;;6131552;28;83228;-62
2022/03/03 03:43:05;;;;;;;67.72;34.85;;;23.20;32.00;;;;;;6131827;28;83154;-62
2022/03/03 03:46:06;;;;;;;69.40;34.00;;;23.20;32.10;;;;;;6132641;28;84673;-62
2022/03/03 03:49:06;;;;;;;69.97;34.42;;;23.20;32.20;;;;;;6133591;28;83440;-62
2022/03/03 03:52:07;;;;;;;66.05;34.42;;;23.20;32.00;;;;;;6129554;28;82739;-62
2022/03/03 03:55:08;;;;;;;66.13;35.25;;;23.20;31.90;;;;;;6130749;28;83499;-62
2022/03/03 03:58:09;;;;;;;76.90;36.95;;;23.20;31.90;;;;;;6128933;28;83196;-62
2022/03/03 04:01:10;;;;;;;72.22;37.13;;;23.20;31.80;;;;;;6129599;28;83237;-62
2022/03/03 04:04:10;;;;;;;70.72;36.78;;;23.20;31.80;;;;;;6148053;28;83069;-62
2022/03/03 04:07:11;;;;;;;71.82;37.15;;;23.20;31.80;;;;;;6129773;28;83020;-62
2022/03/03 04:10:11;;;;;;;74.63;37.75;;;23.10;31.70;;;;;;6115750;28;86207;-62
2022/03/03 04:13:12;;;;;;;73.95;36.58;;;23.10;31.70;;;;;;6117996;28;84665;-62
2022/03/03 04:16:12;;;;;;;73.97;37.38;;;23.10;31.80;;;;;;6130255;28;83195;-63
2022/03/03 04:19:14;;;;;;;82.35;38.95;;;23.10;31.80;;;;;;6129984;28;90433;-63
2022/03/03 04:22:14;;;;;;;80.03;42.20;;;23.20;31.40;;;;;;6130821;28;83237;-63
2022/03/03 04:25:15;;;;;;;82.20;41.72;;;23.20;31.00;;;;;;6128210;28;83159;-63
2022/03/03 04:28:15;;;;;;;88.32;42.90;;;23.30;30.80;;;;;;6135402;28;83170;-62
2022/03/03 04:31:16;;;;;;;88.93;45.28;;;23.30;30.50;;;;;;6134444;28;83195;-62
2022/03/03 04:34:17;;;;;;;88.25;43.92;;;23.40;30.40;;;;;;6129379;28;83960;-62
2022/03/03 04:37:17;;;;;;;87.32;43.97;;;23.40;30.30;;;;;;6128353;28;83023;-63
2022/03/03 04:40:18;;;;;;;83.32;43.65;;;23.40;30.20;;;;;;6128681;28;83084;-62
2022/03/03 04:43:18;;;;;;;85.95;42.55;;;23.50;30.30;;;;;;6130884;28;83633;-63
2022/03/03 04:46:19;;;;;;;92.78;44.35;;;23.50;30.30;;;;;;6130747;28;82801;-63
2022/03/03 04:49:19;;;;;;;84.05;42.80;;;23.50;30.50;;;;;;6130581;28;83121;-63
2022/03/03 04:52:20;;;;;;;82.88;42.90;;;23.50;30.50;;;;;;6127429;28;83046;-62
2022/03/03 04:55:20;;;;;;;88.88;43.75;;;23.50;30.50;;;;;;6130156;28;83152;-63
2022/03/03 04:58:21;;;;;;;85.60;41.95;;;23.60;30.60;;;;;;6130780;28;83424;-63
2022/03/03 05:01:21;;;;;;;86.93;42.83;;;23.60;30.60;;;;;;6129221;28;83301;-62
2022/03/03 05:04:22;;;;;;;81.07;42.88;;;23.60;30.60;;;;;;6122252;28;83004;-63
2022/03/03 05:07:22;;;;;;;82.70;41.03;;;23.60;30.80;;;;;;6128878;28;83601;-63
2022/03/03 05:10:23;;;;;;;81.03;40.78;;;23.60;31.10;;;;;;6128314;28;83052;-63
2022/03/03 05:13:24;;;;;;;79.35;40.58;;;23.70;31.30;;;;;;6112154;28;83951;-63
2022/03/03 05:16:24;;;;;;;78.45;39.83;;;23.70;31.20;;;;;;6128656;28;83103;-63
2022/03/03 05:19:25;;;;;;;75.00;39.55;;;23.70;31.20;;;;;;6121240;28;84467;-63
2022/03/03 05:22:25;;;;;;;83.78;39.85;;;23.70;31.40;;;;;;6122341;28;83301;-63
2022/03/03 05:25:26;;;;;;;75.38;39.63;;;23.70;31.50;;;;;;6116908;28;83217;-63
2022/03/03 05:28:26;;;;;;;75.00;38.40;;;23.70;31.40;;;;;;6118187;28;83248;-64
2022/03/03 05:31:27;;;;;;;84.78;40.55;;;23.70;31.50;;;;;;6120494;28;83243;-62
2022/03/03 05:34:27;;;;;;;82.45;39.33;;;23.70;31.20;;;;;;6128335;28;83923;-61
2022/03/03 05:37:28;;;;;;;81.30;39.92;;;23.80;31.30;;;;;;6138722;28;83435;-63
2022/03/03 05:40:30;;;;;;;79.28;40.03;;;23.80;31.00;;;;;;6133142;28;83079;-62
2022/03/03 05:43:31;;;;;;;82.00;39.97;;;23.80;31.10;;;;;;6127696;28;83063;-63
2022/03/03 05:46:31;;;;;;;80.35;40.50;;;23.80;30.80;;;;;;6126211;28;85967;-63
2022/03/03 05:49:32;;;;;;;81.07;39.83;;;23.80;30.80;;;;;;6136014;28;85477;-61
2022/03/03 05:52:32;;;;;;;76.50;40.17;;;23.80;31.40;;;;;;6129779;28;83796;-61
2022/03/03 05:55:33;;;;;;;83.65;41.08;;;23.70;31.30;;;;;;6135186;28;83560;-62
2022/03/03 05:58:34;;;;;;;84.90;40.88;;;23.70;31.30;;;;;;6128418;28;82998;-63
2022/03/03 06:01:34;;;;;;;88.55;42.33;;;23.70;31.30;;;;;;6128684;28;83796;-63
2022/03/03 06:04:37;;;;;;;81.93;41.00;;;23.70;31.00;;;;;;6130016;28;84386;-63
2022/03/03 06:07:39;;;;;;;82.13;40.92;;;23.70;31.40;;;;;;6129423;28;83502;-63
2022/03/03 06:10:39;;;;;;;81.22;40.38;;;23.70;31.20;;;;;;6129201;28;83215;-62
2022/03/03 06:13:40;;;;;;;82.57;41.20;;;23.60;31.00;;;;;;6127256;28;85855;-62
2022/03/03 06:16:42;;;;;;;90.93;42.78;;;23.70;31.40;;;;;;6133010;28;83423;-65
2022/03/03 06:19:42;;;;;;;85.25;42.28;;;23.70;31.20;;;;;;6128684;28;83072;-63
2022/03/03 06:22:43;;;;;;;83.13;42.78;;;23.70;31.30;;;;;;6129014;28;82932;-65
2022/03/03 06:25:43;;;;;;;82.75;39.95;;;23.60;31.30;;;;;;6119311;28;84403;-65
2022/03/03 06:28:44;;;;;;;77.93;39.55;;;23.70;31.70;;;;;;6127536;28;83019;-60
2022/03/03 06:31:44;;;;;;;80.88;41.83;;;23.70;31.80;;;;;;6126086;28;83595;-61
2022/03/03 06:34:45;;;;;;;92.85;42.53;;;23.70;31.80;;;;;;6124541;28;82757;-61
2022/03/03 06:37:45;;;;;;;87.97;41.33;;;23.70;31.60;;;;;;6130527;28;83221;-62
2022/03/03 06:40:46;;;;;;;80.28;41.72;;;23.70;31.50;;;;;;6131497;28;83189;-61
2022/03/03 06:43:46;;;;;;;86.38;44.33;;;23.70;31.40;;;;;;6131023;28;83163;-59
2022/03/03 06:46:47;;;;;;;87.32;43.80;;;23.70;31.40;;;;;;6141609;28;82795;-62
2022/03/03 06:49:48;;;;;;;87.72;42.25;;;23.60;31.40;;;;;;6129925;28;83290;-60
2022/03/03 06:52:49;;;;;;;82.75;40.55;;;23.70;31.80;;;;;;6137034;28;82846;-60
2022/03/03 06:55:49;;;;;;;78.70;39.15;;;23.60;32.00;;;;;;6145239;28;83486;-62
2022/03/03 06:58:50;;;;;;;82.45;41.78;;;23.70;32.10;;;;;;6136826;28;84080;-62
2022/03/03 07:01:50;;;;;;;76.55;39.78;;;23.60;32.00;;;;;;6132402;28;84404;-62
2022/03/03 07:04:51;;;;;;;82.60;40.90;;;23.60;32.00;;;;;;6130468;28;84034;-62
2022/03/03 07:07:52;;;;;;;66.05;34.05;;;23.60;32.00;;;;;;6129881;28;83160;-61
2022/03/03 07:10:53;;;;;;;63.95;33.15;;;23.40;33.80;;;;;;6119936;28;83216;-62
2022/03/03 07:13:53;;;;;;;50.95;27.75;;;23.30;34.60;;;;;;6132491;28;83026;-61
2022/03/03 07:16:54;;;;;;;49.47;26.42;;;23.20;35.50;;;;;;6129967;28;83178;-62
2022/03/03 07:19:54;;;;;;;50.00;23.95;;;23.20;36.20;;;;;;6128768;28;83377;-62
2022/03/03 07:22:55;;;;;;;48.10;24.05;;;23.20;37.10;;;;;;6118061;28;85053;-61
2022/03/03 07:25:57;;;;;;;45.38;22.42;;;23.20;37.40;;;;;;6121428;28;82885;-61
2022/03/03 07:28:57;;;;;;;44.10;22.05;;;23.10;37.60;;;;;;6132451;28;83460;-61
2022/03/03 07:31:58;;;;;;;38.72;21.15;;;23.00;38.20;;;;;;6115888;28;84245;-62
2022/03/03 07:35:00;;;;;;;41.20;20.02;;;23.00;38.50;;;;;;6139824;28;83204;-61
2022/03/03 07:38:04;;;;;;;46.10;22.15;;;23.00;38.80;;;;;;6142507;28;83075;-62
2022/03/03 07:41:06;;;;;;;40.22;20.50;;;22.90;38.80;;;;;;6147748;28;84650;-67
2022/03/03 07:44:07;;;;;;;37.30;19.85;;;23.00;39.60;;;;;;6141378;28;84206;-66
2022/03/03 07:47:08;;;;;;;40.85;20.63;;;22.90;39.40;;;;;;6133993;28;84406;-67
2022/03/03 07:50:08;;;;;;;38.45;18.27;;;22.90;39.30;;;;;;6129408;28;85184;-67
2022/03/03 07:53:12;;;;;;;40.08;20.30;;;22.90;39.70;;;;;;6128038;28;83742;-67
2022/03/03 07:56:12;;;;;;;38.47;18.45;;;22.80;40.20;;;;;;6122877;28;83392;-66
2022/03/03 07:59:13;;;;;;;40.00;19.13;;;22.80;40.30;;;;;;6124265;28;85630;-67
2022/03/03 08:02:13;;;;;;;37.42;18.38;;;22.70;40.40;;;;;;6130604;28;83023;-68
2022/03/03 08:05:14;;;;;;;35.17;18.15;;;22.70;41.10;;;;;;6117421;28;83681;-69
2022/03/03 08:08:15;;;;;;;32.80;17.02;;;22.70;41.30;;;;;;6129280;28;83106;-66
2022/03/03 08:11:16;;;;;;;34.85;18.17;;;22.70;41.10;;;;;;6131543;28;83410;-67
2022/03/03 08:14:17;;;;;;;37.10;18.85;;;22.80;41.10;;;;;;6130275;28;84081;-67
2022/03/03 08:17:18;;;;;;;32.38;16.27;;;22.70;40.80;;;;;;6129408;28;83409;-67
2022/03/03 08:20:18;;;;;;;28.52;15.45;;;22.80;41.40;;;;;;6138417;28;84527;-67
2022/03/03 08:23:19;;;;;;;32.00;16.70;;;22.80;41.60;;;;;;6130845;28;83162;-62
2022/03/03 08:26:19;;;;;;;31.60;16.02;;;22.80;41.30;;;;;;6135490;28;86027;-66
2022/03/03 08:29:20;;;;;;;28.70;16.23;;;22.80;41.20;;;;;;6129197;28;83019;-65
2022/03/03 08:32:21;;;;;;;31.02;15.77;;;22.80;41.50;;;;;;6128885;28;84353;-63
2022/03/03 08:35:21;;;;;;;33.53;16.88;;;22.80;41.90;;;;;;6128297;28;83973;-63
2022/03/03 08:38:23;;;;;;;35.90;16.08;;;22.80;41.50;;;;;;6130136;28;83415;-64
2022/03/03 08:41:23;;;;;;;26.80;14.43;;;22.70;41.10;;;;;;6133600;28;83404;-63
2022/03/03 08:44:24;;;;;;;24.92;14.45;;;22.80;41.50;;;;;;6133961;28;83029;-66
2022/03/03 08:47:24;;;;;;;28.63;14.82;;;22.80;41.70;;;;;;6129871;28;83274;-66
2022/03/03 08:50:27;;;;;;;29.40;15.30;;;22.90;41.80;;;;;;6126513;28;84449;-67
2022/03/03 08:53:27;;;;;;;27.80;14.73;;;22.90;41.40;;;;;;6124652;28;83208;-67
2022/03/03 08:56:28;;;;;;;25.17;12.73;;;22.90;41.70;;;;;;6129912;28;83343;-66
2022/03/03 08:59:28;;;;;;;26.38;13.85;;;22.90;41.80;;;;;;6127885;28;83087;-67
2022/03/03 09:02:29;;;;;;;25.85;13.30;;;23.00;42.20;;;;;;6134075;28;83746;-66
2022/03/03 09:05:29;;;;;;;27.02;13.77;;;22.90;41.90;;;;;;6120256;28;83373;-66
2022/03/03 09:08:30;;;;;;;27.58;14.20;;;23.00;42.20;;;;;;6138925;28;84106;-66
2022/03/03 09:11:31;;;;;;;25.85;13.40;;;22.90;42.40;;;;;;6125095;28;84274;-66
2022/03/03 09:14:31;;;;;;;24.30;12.73;;;22.90;42.40;;;;;;6128437;28;83238;-66
2022/03/03 09:17:32;;;;;;;27.08;13.85;;;23.00;42.20;;;;;;6125241;28;82987;-67
2022/03/03 09:20:33;;;;;;;24.48;12.82;;;23.00;42.80;;;;;;6126542;28;83186;-66
2022/03/03 09:23:33;;;;;;;23.63;12.52;;;23.00;42.80;;;;;;6127397;28;84943;-66
2022/03/03 09:26:34;;;;;;;29.45;14.02;;;23.00;42.70;;;;;;6119699;28;83341;-67
2022/03/03 09:29:35;;;;;;;23.42;12.60;;;23.00;42.40;;;;;;6125952;28;83145;-66
2022/03/03 09:32:35;;;;;;;27.35;13.85;;;23.00;42.60;;;;;;6120845;28;83262;-62
2022/03/03 09:35:36;;;;;;;26.88;13.40;;;23.00;42.20;;;;;;6128156;28;82877;-62
2022/03/03 09:38:37;;;;;;;24.30;12.07;;;23.10;42.80;;;;;;6126585;28;83753;-62
2022/03/03 09:41:37;;;;;;;24.02;12.52;;;23.10;42.80;;;;;;6120098;28;83512;-63
2022/03/03 09:44:38;;;;;;;18.55;10.40;;;23.20;43.60;;;;;;6128232;28;84276;-67
2022/03/03 09:47:38;;;;;;;21.13;10.30;;;23.20;44.00;;;;;;6119996;28;82915;-67
2022/03/03 09:50:39;;;;;;;18.52;10.20;;;23.30;44.20;;;;;;6125409;28;84509;-69
2022/03/03 09:53:39;;;;;;;18.05;9.63;;;23.30;43.70;;;;;;6130772;28;83060;-64
2022/03/03 09:56:40;;;;;;;21.02;8.48;;;23.40;44.00;;;;;;6131422;28;82829;-64
2022/03/03 09:59:40;;;;;;;14.20;7.97;;;23.40;44.00;;;;;;6129857;28;81768;-67
2022/03/03 10:02:41;;;;;;;14.88;8.40;;;23.50;44.10;;;;;;6123880;28;81619;-69
2022/03/03 10:05:42;;;;;;;17.98;8.75;;;23.60;43.70;;;;;;6128828;28;80518;-70
2022/03/03 10:08:43;;;;;;;13.25;6.63;;;23.60;43.40;;;;;;6120876;28;82266;-63
2022/03/03 10:11:43;;;;;;;13.75;7.38;;;23.80;43.80;;;;;;6121106;28;80439;-69
2022/03/03 10:14:48;;;;;;;12.15;6.85;;;23.90;43.70;;;;;;6126198;28;81590;-68
2022/03/03 10:17:48;;;;;;;14.32;7.75;;;24.10;43.60;;;;;;6126681;28;81589;-69
2022/03/03 10:20:49;;;;;;;12.15;7.30;;;24.00;43.60;;;;;;6123726;28;80572;-70
2022/03/03 10:23:50;;;;;;;12.50;6.70;;;24.00;43.70;;;;;;6121247;28;80806;-69
2022/03/03 10:26:50;;;;;;;14.52;8.65;;;24.00;43.50;;;;;;6121652;28;81159;-67
2022/03/03 10:29:51;;;;;;;12.07;7.10;;;24.00;43.80;;;;;;6130723;28;82867;-71
2022/03/03 10:32:51;;;;;;;15.80;7.53;;;24.00;44.10;;;;;;6121590;28;80519;-68
2022/03/03 10:35:52;;;;;;;12.95;7.50;;;23.90;43.90;;;;;;6134735;28;80949;-66
2022/03/03 10:38:52;;;;;;;25.80;6.85;;;23.70;44.00;;;;;;6139681;28;80638;-69
2022/03/03 10:41:53;;;;;;;16.70;8.93;;;23.70;45.10;;;;;;6137224;28;81238;-73
2022/03/03 10:44:53;;;;;;;10.68;6.85;;;23.70;44.10;;;;;;6140061;28;80305;-71
2022/03/03 10:47:54;;;;;;;36.65;17.33;;;23.70;44.30;;;;;;6124249;28;81192;-66
2022/03/03 10:50:54;;;;;;;101.50;49.10;;;23.90;44.40;;;;;;6140615;28;82838;-69
2022/03/03 10:53:55;;;;;;;167.52;75.47;;;24.10;44.90;;;;;;6124262;28;84615;-71
2022/03/03 10:56:56;;;;;;;110.28;52.03;;;24.20;44.70;;;;;;6131350;28;83864;-69
2022/03/03 10:59:56;;;;;;;86.38;41.72;;;24.30;42.10;;;;;;6131962;28;83158;-74
2022/03/03 11:02:57;;;;;;;76.65;33.50;;;24.40;42.60;;;;;;6133242;28;82990;-71
2022/03/03 11:05:57;;;;;;;54.92;26.10;;;24.40;43.20;;;;;;6123806;28;83248;-71
2022/03/03 11:08:59;;;;;;;54.80;23.73;;;24.50;43.20;;;;;;6115914;28;83401;-71
2022/03/03 11:12:00;;;;;;;47.40;22.55;;;24.60;43.30;;;;;;6128185;28;88077;-70
2022/03/03 11:15:03;;;;;;;36.97;18.88;;;24.60;44.00;;;;;;6118469;28;83260;-70
2022/03/03 11:18:03;;;;;;;36.40;18.75;;;24.60;43.80;;;;;;6126380;28;83486;-70
2022/03/03 11:21:04;;;;;;;30.13;16.70;;;24.60;43.80;;;;;;6127352;28;83313;-69
2022/03/03 11:24:04;;;;;;;29.95;15.20;;;24.70;43.90;;;;;;6119522;28;82855;-68
2022/03/03 11:27:05;;;;;;;25.10;12.85;;;24.70;44.50;;;;;;6126741;28;83311;-70
2022/03/03 11:30:06;;;;;;;24.98;12.75;;;24.70;44.20;;;;;;6126619;28;83067;-69
2022/03/03 11:33:06;;;;;;;27.00;11.20;;;24.70;44.30;;;;;;6125269;28;83556;-68
2022/03/03 11:36:08;;;;;;;22.02;11.05;;;24.70;44.30;;;;;;6129312;28;82822;-69
2022/03/03 11:39:10;;;;;;;19.63;10.48;;;24.80;44.30;;;;;;6128602;28;83888;-68
2022/03/03 11:42:10;;;;;;;17.88;9.35;;;24.80;43.80;;;;;;6124491;28;84002;-68
2022/03/03 11:45:11;;;;;;;19.20;9.45;;;24.80;44.00;;;;;;6129974;28;83046;-67
2022/03/03 11:48:11;;;;;;;17.60;9.82;;;24.80;43.80;;;;;;6123211;28;81158;-68
2022/03/03 11:51:12;;;;;;;13.25;8.18;;;24.80;43.90;;;;;;6123246;28;80685;-70
2022/03/03 11:54:12;;;;;;;17.58;8.30;;;24.80;43.50;;;;;;6131910;28;80741;-69
2022/03/03 11:57:13;;;;;;;12.82;7.40;;;24.90;43.60;;;;;;6125581;28;80659;-69
2022/03/03 12:00:16;;;;;;;13.70;7.57;;;24.90;43.80;;;;;;6130985;28;81760;-68
2022/03/03 12:03:17;;;;;;;13.18;7.55;;;24.90;43.70;;;;;;6128774;28;80320;-69
2022/03/03 12:06:18;;;;;;;12.15;6.32;;;24.90;43.70;;;;;;6132918;28;81938;-70
2022/03/03 12:09:19;;;;;;;10.43;5.90;;;24.90;43.80;;;;;;6131362;28;80475;-70
2022/03/03 12:12:19;;;;;;;10.00;5.63;;;25.00;43.80;;;;;;6132526;28;80238;-68
2022/03/03 12:15:20;;;;;;;13.45;6.25;;;24.90;43.70;;;;;;6127305;28;80517;-69
2022/03/03 12:18:20;;;;;;;8.63;5.07;;;25.00;43.40;;;;;;6117189;28;81721;-68
2022/03/03 12:21:21;;;;;;;11.20;5.35;;;24.90;43.40;;;;;;6130443;28;80709;-69
2022/03/03 12:24:28;;;;;;;10.93;5.28;;;24.90;43.30;;;;;;6124919;28;80991;-68
2022/03/03 12:27:28;;;;;;;7.57;4.57;;;25.00;43.10;;;;;;6118086;28;80706;-71
2022/03/03 12:30:30;;;;;;;8.25;4.90;;;25.00;43.40;;;;;;6126909;28;80646;-68
2022/03/03 12:33:30;;;;;;;6.57;4.10;;;25.00;43.30;;;;;;6124367;28;81035;-67
2022/03/03 12:36:31;;;;;;;6.35;3.65;;;25.00;43.30;;;;;;6127754;28;81348;-67
2022/03/03 12:39:32;;;;;;;6.82;4.03;;;25.00;43.50;;;;;;6125990;28;80262;-66
2022/03/03 12:42:32;;;;;;;7.22;4.68;;;24.90;43.10;;;;;;6128801;28;83746;-66
2022/03/03 12:45:33;;;;;;;10.82;4.10;;;24.90;42.90;;;;;;6132758;28;80721;-67
2022/03/03 12:48:34;;;;;;;6.78;3.88;;;24.90;42.90;;;;;;6142284;28;80886;-65
2022/03/03 12:51:34;;;;;;;5.78;3.53;;;24.80;42.90;;;;;;6123724;28;80769;-66
2022/03/03 12:54:35;;;;;;;5.10;3.38;;;24.80;43.40;;;;;;6130303;28;81579;-66
2022/03/03 12:57:35;;;;;;;5.85;3.22;;;24.80;43.70;;;;;;6132770;28;80739;-66
2022/03/03 13:00:36;;;;;;;7.55;3.50;;;24.70;43.90;;;;;;6132612;28;80139;-66
2022/03/03 13:03:39;;;;;;;4.82;3.28;;;24.70;44.20;;;;;;6131694;28;80398;-67
2022/03/03 13:06:40;;;;;;;5.72;3.63;;;24.60;43.60;;;;;;6127700;28;80729;-66
2022/03/03 13:09:40;;;;;;;4.90;2.88;;;24.60;43.40;;;;;;6128496;28;81166;-67
2022/03/03 13:12:41;;;;;;;4.53;3.28;;;24.60;44.00;;;;;;6129370;28;80358;-62
2022/03/03 13:15:43;;;;;;;4.07;2.97;;;24.50;43.50;;;;;;6121624;28;80395;-64
2022/03/03 13:18:44;;;;;;;6.85;2.95;;;24.50;43.60;;;;;;6134076;28;80874;-62
2022/03/03 13:21:44;;;;;;;7.88;3.95;;;24.50;43.80;;;;;;6132259;28;80403;-62
2022/03/03 13:24:45;;;;;;;15.77;6.97;;;24.40;43.80;;;;;;6133343;28;80803;-63
2022/03/03 13:27:45;;;;;;;17.90;8.23;;;24.40;43.80;;;;;;6119680;28;81772;-62
2022/03/03 13:30:46;;;;;;;25.65;11.50;;;24.40;43.90;;;;;;6133488;28;80977;-63
2022/03/03 13:33:47;;;;;;;21.25;10.45;;;24.40;44.00;;;;;;6127064;28;83791;-63
2022/03/03 13:36:48;;;;;;;22.80;11.65;;;24.40;43.90;;;;;;6125394;28;83223;-63
2022/03/03 13:39:50;;;;;;;29.30;13.10;;;24.40;44.10;;;;;;6122508;28;83550;-64
2022/03/03 13:42:50;;;;;;;29.52;12.90;;;24.30;44.00;;;;;;6119859;28;84199;-63
2022/03/03 13:45:51;;;;;;;25.75;12.65;;;24.30;44.10;;;;;;6129520;28;83196;-65
2022/03/03 13:48:52;;;;;;;26.33;13.18;;;24.30;44.10;;;;;;6126387;28;83079;-63
2022/03/03 13:51:52;;;;;;;26.45;12.65;;;24.30;44.10;;;;;;6127959;28;83611;-63
2022/03/03 13:54:53;;;;;;;25.92;13.02;;;24.20;44.10;;;;;;6142532;28;84804;-64
2022/03/03 13:57:54;;;;;;;22.83;11.27;;;24.20;43.90;;;;;;6134730;28;87125;-70
2022/03/03 14:00:54;;;;;;;20.00;10.75;;;24.20;44.20;;;;;;6138455;28;83196;-68
2022/03/03 14:03:55;;;;;;;17.98;9.23;;;24.10;43.90;;;;;;6141257;28;84453;-68
2022/03/03 14:06:55;;;;;;;21.13;10.38;;;24.20;44.00;;;;;;6144134;28;83762;-69
2022/03/03 14:09:56;;;;;;;14.98;8.27;;;24.10;43.90;;;;;;6137976;28;83235;-64
2022/03/03 14:12:56;;;;;;;15.30;8.00;;;24.10;44.00;;;;;;6140912;28;83083;-68
2022/03/03 14:15:57;;;;;;;14.43;7.57;;;24.10;44.20;;;;;;6132200;28;80118;-67
2022/03/03 14:18:58;;;;;;;16.52;7.72;;;24.10;44.30;;;;;;6130559;28;80383;-69
2022/03/03 14:21:58;;;;;;;13.95;6.50;;;24.10;43.90;;;;;;6136404;28;81380;-68
2022/03/03 14:24:59;;;;;;;10.20;5.70;;;24.10;43.80;;;;;;6138497;28;80450;-68
2022/03/03 14:27:59;;;;;;;9.68;5.45;;;24.10;43.60;;;;;;6136410;28;80526;-69
2022/03/03 14:31:00;;;;;;;9.65;4.70;;;24.10;44.00;;;;;;6140840;28;82512;-66
2022/03/03 14:34:00;;;;;;;6.97;4.38;;;24.10;43.60;;;;;;6136181;28;80589;-68
2022/03/03 14:37:01;;;;;;;7.53;4.68;;;24.10;43.10;;;;;;6135705;28;80558;-69
2022/03/03 14:40:02;;;;;;;6.40;4.05;;;24.10;43.00;;;;;;6136607;28;82109;-68
2022/03/03 14:43:03;;;;;;;5.28;3.63;;;24.10;43.00;;;;;;6136968;28;80968;-65
2022/03/03 14:46:03;;;;;;;6.60;3.80;;;24.10;43.00;;;;;;6131481;28;88157;-66
2022/03/03 14:49:04;;;;;;;5.82;3.80;;;24.20;43.80;;;;;;6127073;28;80787;-67
2022/03/03 14:52:04;;;;;;;4.63;3.10;;;24.20;43.60;;;;;;6136557;28;80678;-67
2022/03/03 14:55:06;;;;;;;4.63;3.05;;;24.20;43.90;;;;;;6135097;28;80981;-62
2022/03/03 14:58:07;;;;;;;6.38;3.17;;;24.20;43.90;;;;;;6134761;28;80263;-59
2022/03/03 15:01:07;;;;;;;6.07;3.35;;;24.20;44.00;;;;;;6138371;28;80397;-66
2022/03/03 15:04:12;;;;;;;4.47;2.95;;;24.20;44.00;;;;;;6127504;28;81176;-62
2022/03/03 15:07:12;;;;;;;10.30;3.45;;;24.40;43.60;;;;;;6133390;28;82005;-67
2022/03/03 15:10:13;;;;;;;4.68;3.25;;;24.60;42.90;;;;;;6135649;28;80664;-63
2022/03/03 15:13:14;;;;;;;6.38;3.03;;;24.60;42.60;;;;;;6150462;28;80712;-64
2022/03/03 15:16:15;;;;;;;4.10;3.03;;;24.40;42.40;;;;;;6137142;28;80941;-63
2022/03/03 15:19:15;;;;;;;4.30;2.90;;;24.20;43.00;;;;;;6135857;28;80296;-62